Time;durP1;ratioP1;P1;durP2;ratioP2;P2;SDS_P1;SDS_P2;PMS_P1;PMS_P2;Temp;Humidity;BMP_temperature;BMP_pressure;BME280_temperature;BME280_humidity;BME280_pressure;Samples;Min_cycle;Max_cycle;Signal;HPM_P1;HPM_P2
2022/03/09 00:01:54;;;;;;;0.50;0.50;;;1.00;99.90;;;;;;5112866;28;20422;-67
2022/03/09 00:04:41;;;;;;;0.47;0.47;;;1.00;99.90;;;;;;5113577;28;20418;-67
2022/03/09 00:07:28;;;;;;;0.50;0.50;;;0.90;99.90;;;;;;5112769;28;20445;-67
2022/03/09 00:10:15;;;;;;;0.50;0.50;;;0.90;99.90;;;;;;5112227;28;20995;-67
2022/03/09 00:13:04;;;;;;;0.40;0.40;;;0.90;99.90;;;;;;5112261;28;20871;-67
2022/03/09 00:15:51;;;;;;;0.50;0.50;;;0.90;99.90;;;;;;5112238;28;20458;-67
2022/03/09 00:18:38;;;;;;;0.50;0.50;;;1.00;99.90;;;;;;5112808;28;20480;-67
2022/03/09 00:21:24;;;;;;;0.50;0.50;;;0.80;99.90;;;;;;5112672;28;20481;-67
2022/03/09 00:24:14;;;;;;;0.50;0.50;;;0.80;99.90;;;;;;5112403;28;20437;-67
2022/03/09 00:27:01;;;;;;;0.50;0.50;;;0.80;99.90;;;;;;5115832;28;20422;-67
2022/03/09 00:29:50;;;;;;;0.50;0.50;;;0.80;99.90;;;;;;5112037;28;20515;-67
2022/03/09 00:32:40;;;;;;;0.50;0.50;;;0.70;99.90;;;;;;5111441;28;20447;-67
2022/03/09 00:35:27;;;;;;;0.50;0.50;;;0.70;99.90;;;;;;5112911;28;20458;-67
2022/03/09 00:38:14;;;;;;;0.50;0.50;;;0.70;99.90;;;;;;5111525;28;20484;-67
2022/03/09 00:41:01;;;;;;;0.50;0.50;;;0.70;99.90;;;;;;5114960;28;20477;-67
2022/03/09 00:43:48;;;;;;;0.50;0.50;;;0.60;99.90;;;;;;5111282;28;20456;-67
2022/03/09 00:46:36;;;;;;;0.50;0.50;;;0.60;99.90;;;;;;5117925;28;20422;-67
2022/03/09 00:49:23;;;;;;;0.50;0.50;;;0.60;99.90;;;;;;5116646;28;20418;-67
2022/03/09 00:52:10;;;;;;;0.50;0.50;;;0.60;99.90;;;;;;5115492;28;20461;-67
2022/03/09 00:54:57;;;;;;;0.47;0.47;;;0.60;99.90;;;;;;5116443;28;20493;-67
2022/03/09 00:57:44;;;;;;;0.50;0.50;;;0.60;99.90;;;;;;5115764;28;20460;-67
2022/03/09 01:00:31;;;;;;;0.50;0.50;;;0.50;99.90;;;;;;5116584;28;20495;-67
2022/03/09 01:03:19;;;;;;;0.50;0.50;;;0.50;99.90;;;;;;5115688;28;20512;-68
2022/03/09 01:06:06;;;;;;;0.50;0.50;;;0.50;99.90;;;;;;5115672;28;20422;-67
2022/03/09 01:08:53;;;;;;;0.50;0.50;;;0.50;99.90;;;;;;5115027;28;20413;-68
2022/03/09 01:11:40;;;;;;;0.50;0.50;;;0.50;99.90;;;;;;5116206;28;20428;-68
2022/03/09 01:14:27;;;;;;;0.50;0.50;;;0.50;99.90;;;;;;5116373;28;20777;-68
2022/03/09 01:17:14;;;;;;;0.50;0.50;;;0.40;99.90;;;;;;5115077;28;20949;-68
2022/03/09 01:20:03;;;;;;;0.47;0.47;;;0.50;99.90;;;;;;5116400;28;20414;-68
2022/03/09 01:22:50;;;;;;;0.50;0.50;;;0.40;99.90;;;;;;5117814;28;20461;-68
2022/03/09 01:25:37;;;;;;;0.50;0.50;;;0.40;99.90;;;;;;5121314;28;20410;-68
2022/03/09 01:28:23;;;;;;;0.50;0.50;;;0.50;99.90;;;;;;5119843;28;20422;-68
2022/03/09 01:31:10;;;;;;;0.50;0.50;;;0.40;99.90;;;;;;5117283;28;20984;-68
2022/03/09 01:33:57;;;;;;;0.50;0.50;;;0.30;99.90;;;;;;5116850;28;20459;-68
2022/03/09 01:36:45;;;;;;;0.50;0.50;;;0.40;99.90;;;;;;5117028;28;20545;-68
2022/03/09 01:39:32;;;;;;;0.50;0.50;;;0.30;99.90;;;;;;5117329;28;20766;-68
2022/03/09 01:42:19;;;;;;;0.50;0.50;;;0.30;99.90;;;;;;5115649;28;20505;-68
2022/03/09 01:45:09;;;;;;;0.50;0.50;;;0.20;99.90;;;;;;5118098;28;20473;-68
2022/03/09 01:47:56;;;;;;;0.40;0.40;;;0.30;99.90;;;;;;5117890;28;20860;-68
2022/03/09 01:50:44;;;;;;;0.50;0.50;;;0.20;99.90;;;;;;5118745;28;20451;-68
2022/03/09 01:53:32;;;;;;;0.50;0.50;;;0.20;99.90;;;;;;5118803;28;20561;-68
2022/03/09 01:56:19;;;;;;;0.40;0.40;;;0.20;99.90;;;;;;5118797;28;20807;-68
2022/03/09 01:59:09;;;;;;;0.50;0.50;;;0.20;99.90;;;;;;5117574;28;20422;-67
2022/03/09 02:01:56;;;;;;;0.50;0.50;;;0.10;99.90;;;;;;5117119;28;20919;-68
2022/03/09 02:04:43;;;;;;;0.50;0.50;;;0.20;99.90;;;;;;5117847;28;20454;-67
2022/03/09 02:10:39;;;;;;;0.50;0.50;;;0.10;99.90;;;;;;5117112;28;20457;-67
2022/03/09 02:13:26;;;;;;;0.93;0.93;;;0.10;99.90;;;;;;5115467;28;20438;-68
2022/03/09 02:16:14;;;;;;;0.50;0.50;;;0.00;99.90;;;;;;5115656;27;20511;-68
2022/03/09 02:19:02;;;;;;;0.50;0.50;;;0.00;99.90;;;;;;5133625;27;20429;-68
2022/03/09 02:21:51;;;;;;;0.50;0.50;;;0.00;99.90;;;;;;5135536;27;20409;-68
2022/03/09 02:24:41;;;;;;;0.50;0.50;;;0.00;99.90;;;;;;5137021;27;20440;-68
2022/03/09 02:27:28;;;;;;;0.50;0.50;;;0.00;99.90;;;;;;5136400;27;20417;-68
2022/03/09 02:30:17;;;;;;;0.40;0.40;;;0.00;99.90;;;;;;5136867;27;20421;-67
2022/03/09 02:33:04;;;;;;;0.47;0.47;;;0.00;99.90;;;;;;5135913;27;20452;-68
2022/03/09 02:35:53;;;;;;;0.40;0.40;;;0.00;99.90;;;;;;5137051;27;20965;-67
2022/03/09 02:38:40;;;;;;;0.50;0.50;;;0.00;99.90;;;;;;5135086;27;20844;-67
2022/03/09 02:41:33;;;;;;;0.50;0.50;;;0.00;99.90;;;;;;5134574;27;20834;-67
2022/03/09 02:44:20;;;;;;;0.50;0.50;;;-0.10;99.90;;;;;;5135433;27;20434;-67
2022/03/09 02:47:07;;;;;;;0.40;0.40;;;-0.10;99.90;;;;;;5135971;27;20417;-67
2022/03/09 02:49:54;;;;;;;0.43;0.43;;;0.00;99.90;;;;;;5136156;27;20418;-67
2022/03/09 02:52:43;;;;;;;0.40;0.40;;;-0.20;99.90;;;;;;5135360;27;20812;-67
2022/03/09 02:55:30;;;;;;;0.50;0.50;;;-0.10;99.90;;;;;;5135628;27;20449;-67
2022/03/09 02:58:18;;;;;;;0.50;0.50;;;-0.10;99.90;;;;;;5135074;27;20496;-67
2022/03/09 03:01:05;;;;;;;0.43;0.43;;;-0.20;99.90;;;;;;5134373;27;20474;-67
2022/03/09 03:03:52;;;;;;;0.50;0.50;;;-0.20;99.90;;;;;;5134049;27;20482;-67
2022/03/09 03:06:39;;;;;;;0.40;0.40;;;-0.20;99.90;;;;;;5128674;27;20479;-67
2022/03/09 03:09:25;;;;;;;0.50;0.50;;;-0.20;99.90;;;;;;5134320;27;20414;-67
2022/03/09 03:12:12;;;;;;;0.50;0.50;;;-0.20;99.90;;;;;;5134526;27;20444;-67
2022/03/09 03:15:00;;;;;;;0.50;0.50;;;-0.20;99.90;;;;;;5133913;27;20417;-67
2022/03/09 03:17:47;;;;;;;0.50;0.50;;;-0.30;99.90;;;;;;5134244;27;20417;-67
2022/03/09 03:20:35;;;;;;;0.50;0.50;;;-0.30;99.90;;;;;;5133759;27;20936;-67
2022/03/09 03:23:22;;;;;;;0.50;0.50;;;-0.30;99.90;;;;;;5133658;27;20463;-67
2022/03/09 03:26:09;;;;;;;0.40;0.40;;;-0.40;99.90;;;;;;5134808;27;20413;-67
2022/03/09 03:28:58;;;;;;;0.50;0.50;;;-0.40;99.90;;;;;;5135131;27;20833;-68
2022/03/09 03:31:46;;;;;;;0.50;0.50;;;-0.30;99.90;;;;;;5133443;27;20424;-67
2022/03/09 03:34:33;;;;;;;0.47;0.47;;;-0.40;99.90;;;;;;5134479;27;20421;-67
2022/03/09 03:37:20;;;;;;;0.50;0.50;;;-0.40;99.90;;;;;;5133053;27;20454;-67
2022/03/09 03:40:09;;;;;;;0.40;0.40;;;-0.40;99.90;;;;;;5133439;27;20466;-67
2022/03/09 03:42:55;;;;;;;0.47;0.47;;;-0.40;99.90;;;;;;5133537;27;20453;-67
2022/03/09 03:45:42;;;;;;;0.40;0.40;;;-0.40;99.90;;;;;;5134248;27;20487;-68
2022/03/09 03:48:31;;;;;;;1.07;1.07;;;-0.50;99.90;;;;;;5133108;27;20462;-67
2022/03/09 03:51:18;;;;;;;0.50;0.50;;;-0.50;99.90;;;;;;5134299;27;20422;-67
2022/03/09 03:54:04;;;;;;;0.50;0.50;;;-0.40;99.90;;;;;;5133523;27;20448;-67
2022/03/09 03:56:51;;;;;;;0.50;0.50;;;-0.50;99.90;;;;;;5133924;27;20460;-67
2022/03/09 03:59:38;;;;;;;0.50;0.50;;;-0.50;99.90;;;;;;5132787;27;20421;-67
2022/03/09 04:02:25;;;;;;;0.40;0.40;;;-0.60;99.90;;;;;;5086225;22;20492;-65
2022/03/09 04:05:13;;;;;;;0.40;0.40;;;-0.60;99.90;;;;;;5032662;28;20476;-65
2022/03/09 04:08:00;;;;;;;0.40;0.40;;;-0.60;99.90;;;;;;5032197;28;20422;-65
2022/03/09 04:10:47;;;;;;;0.40;0.40;;;-0.60;99.90;;;;;;5033153;28;20951;-65
2022/03/09 04:13:34;;;;;;;0.40;0.40;;;-0.60;99.90;;;;;;5032899;28;20955;-66
2022/03/09 04:16:21;;;;;;;0.40;0.40;;;-0.60;99.90;;;;;;5033108;28;20465;-66
2022/03/09 04:19:08;;;;;;;0.40;0.40;;;-0.70;99.90;;;;;;5033228;28;20426;-65
2022/03/09 04:21:56;;;;;;;1.17;1.17;;;-0.70;99.90;;;;;;5032004;28;20456;-66
2022/03/09 04:24:43;;;;;;;0.40;0.40;;;-0.70;99.90;;;;;;5033341;28;20437;-66
2022/03/09 04:27:30;;;;;;;0.40;0.40;;;-0.70;99.90;;;;;;5033409;28;20428;-66
2022/03/09 04:30:17;;;;;;;0.40;0.40;;;-0.70;99.90;;;;;;5032341;28;20429;-66
2022/03/09 04:33:04;;;;;;;0.40;0.40;;;-0.80;99.90;;;;;;5033611;28;20468;-66
2022/03/09 04:35:51;;;;;;;0.40;0.40;;;-0.80;99.90;;;;;;5032597;28;20457;-65
2022/03/09 04:38:39;;;;;;;0.40;0.40;;;-0.60;99.90;;;;;;5033235;28;20426;-66
2022/03/09 04:41:26;;;;;;;0.40;0.40;;;-0.70;99.90;;;;;;5032462;28;20449;-66
2022/03/09 04:44:13;;;;;;;0.40;0.40;;;-2.30;99.90;;;;;;5033207;28;20953;-66
2022/03/09 04:46:59;;;;;;;0.40;0.40;;;-0.80;99.90;;;;;;5033361;28;20417;-66
2022/03/09 04:49:46;;;;;;;0.40;0.40;;;-0.80;99.90;;;;;;5031829;28;20430;-66
2022/03/09 04:52:33;;;;;;;0.40;0.40;;;-0.80;99.90;;;;;;5032079;28;20824;-65
2022/03/09 04:55:22;;;;;;;0.40;0.40;;;-0.80;99.90;;;;;;5031627;28;20429;-65
2022/03/09 04:58:10;;;;;;;10.10;9.27;;;-0.80;99.90;;;;;;5031540;28;20414;-65
2022/03/09 05:00:57;;;;;;;0.50;0.50;;;-0.80;99.90;;;;;;5031627;28;20426;-66
2022/03/09 05:03:44;;;;;;;0.40;0.40;;;-0.80;99.90;;;;;;5031449;28;20418;-66
2022/03/09 05:06:31;;;;;;;0.40;0.40;;;-0.90;99.90;;;;;;5031712;28;20418;-66
2022/03/09 05:09:18;;;;;;;0.40;0.40;;;-0.90;99.90;;;;;;5032728;28;20480;-66
2022/03/09 05:12:07;;;;;;;0.40;0.40;;;-0.90;99.90;;;;;;5033104;28;21153;-65
2022/03/09 05:14:54;;;;;;;4.93;2.77;;;-0.90;99.90;;;;;;5032234;28;20453;-65
2022/03/09 05:17:41;;;;;;;0.40;0.40;;;-1.00;99.90;;;;;;5031642;28;20480;-66
2022/03/09 05:20:28;;;;;;;0.70;0.70;;;-1.00;99.90;;;;;;5031829;28;20425;-66
2022/03/09 05:23:15;;;;;;;3.70;1.60;;;-1.00;99.90;;;;;;5031780;28;20854;-66
2022/03/09 05:26:02;;;;;;;0.40;0.40;;;-1.00;99.90;;;;;;5032449;28;20450;-66
2022/03/09 05:28:51;;;;;;;0.40;0.40;;;-1.00;99.90;;;;;;5031446;28;20425;-66
2022/03/09 05:31:38;;;;;;;0.40;0.40;;;-1.10;99.90;;;;;;5034112;28;20454;-66
2022/03/09 05:34:25;;;;;;;0.40;0.40;;;-1.00;99.90;;;;;;5035594;28;20852;-66
2022/03/09 05:37:11;;;;;;;0.40;0.40;;;-1.00;99.90;;;;;;5036483;28;20520;-67
2022/03/09 05:39:58;;;;;;;0.40;0.40;;;-1.10;99.90;;;;;;5036347;28;20429;-66
2022/03/09 05:42:45;;;;;;;0.43;0.43;;;-1.00;99.90;;;;;;5035348;28;20460;-65
2022/03/09 05:45:34;;;;;;;0.40;0.40;;;-1.00;99.90;;;;;;5035715;28;20429;-65
2022/03/09 05:48:20;;;;;;;0.40;0.40;;;-1.00;99.90;;;;;;5035884;28;20418;-66
2022/03/09 05:51:07;;;;;;;0.40;0.40;;;-1.00;99.90;;;;;;5034710;28;20980;-66
2022/03/09 05:53:54;;;;;;;0.40;0.40;;;-0.80;99.90;;;;;;5035136;28;20429;-65
2022/03/09 05:56:41;;;;;;;0.40;0.40;;;-0.90;99.90;;;;;;5035259;28;20458;-66
2022/03/09 05:59:28;;;;;;;0.40;0.40;;;-0.80;99.90;;;;;;5036048;28;20434;-65
2022/03/09 06:02:17;;;;;;;0.40;0.40;;;-0.80;99.90;;;;;;5034094;28;20461;-65
2022/03/09 06:05:04;;;;;;;0.40;0.40;;;-0.70;99.90;;;;;;5035130;28;20425;-65
2022/03/09 06:07:51;;;;;;;0.40;0.40;;;-0.70;99.90;;;;;;5035654;28;20418;-65
2022/03/09 06:10:38;;;;;;;0.40;0.40;;;-0.70;99.90;;;;;;5035962;28;20818;-66
2022/03/09 06:13:25;;;;;;;0.40;0.40;;;-0.60;99.90;;;;;;5035087;28;20771;-67
2022/03/09 06:16:12;;;;;;;0.40;0.40;;;-0.60;99.90;;;;;;5035242;28;20422;-67
2022/03/09 06:19:00;;;;;;;0.40;0.40;;;-0.40;99.90;;;;;;5034153;28;20508;-67
2022/03/09 06:21:47;;;;;;;0.40;0.40;;;-0.50;99.90;;;;;;5033869;28;20857;-67
2022/03/09 06:24:34;;;;;;;0.40;0.40;;;-0.50;99.90;;;;;;5035156;28;20573;-67
2022/03/09 06:27:21;;;;;;;0.40;0.40;;;-0.30;99.90;;;;;;5035009;28;20445;-67
2022/03/09 06:30:09;;;;;;;0.40;0.40;;;-0.30;99.90;;;;;;5033953;28;20425;-66
2022/03/09 06:32:56;;;;;;;0.40;0.40;;;-0.20;99.90;;;;;;5034106;28;20441;-66
2022/03/09 06:35:44;;;;;;;0.40;0.40;;;-0.20;99.90;;;;;;5035224;28;20425;-67
2022/03/09 06:38:31;;;;;;;0.40;0.40;;;-0.10;99.90;;;;;;5040758;28;20442;-66
2022/03/09 06:41:18;;;;;;;0.40;0.40;;;0.00;99.90;;;;;;5034516;28;20983;-65
2022/03/09 06:44:06;;;;;;;0.40;0.40;;;0.10;99.90;;;;;;5030655;28;20425;-66
2022/03/09 06:46:53;;;;;;;1.03;1.03;;;0.20;99.90;;;;;;5033858;28;20428;-66
2022/03/09 06:49:39;;;;;;;0.40;0.40;;;0.20;99.90;;;;;;5032705;28;20421;-67
2022/03/09 06:52:28;;;;;;;0.40;0.40;;;0.30;99.90;;;;;;5034404;28;20446;-65
2022/03/09 06:55:14;;;;;;;0.40;0.40;;;0.40;99.90;;;;;;5033432;28;20958;-66
2022/03/09 06:58:01;;;;;;;0.40;0.40;;;0.50;99.90;;;;;;5027440;28;20476;-65
2022/03/09 07:00:48;;;;;;;0.40;0.40;;;0.60;99.90;;;;;;5045276;28;20831;-65
2022/03/09 07:03:35;;;;;;;0.50;0.50;;;0.70;99.90;;;;;;5032306;28;20441;-66
2022/03/09 07:06:22;;;;;;;1.10;1.10;;;0.80;99.90;;;;;;5033054;28;20430;-66
2022/03/09 07:09:11;;;;;;;0.40;0.40;;;0.90;99.90;;;;;;5038068;28;20792;-67
2022/03/09 07:11:58;;;;;;;0.40;0.40;;;1.00;99.90;;;;;;5032422;28;20480;-66
2022/03/09 07:14:45;;;;;;;0.40;0.40;;;1.10;99.90;;;;;;5033642;28;20942;-66
2022/03/09 07:17:32;;;;;;;0.40;0.40;;;1.20;99.90;;;;;;5033498;28;20461;-66
2022/03/09 07:20:19;;;;;;;0.40;0.40;;;1.30;99.90;;;;;;5033681;28;20433;-66
2022/03/09 07:23:06;;;;;;;0.40;0.40;;;1.40;99.90;;;;;;5018484;28;20962;-66
2022/03/09 07:25:54;;;;;;;0.40;0.40;;;1.50;99.90;;;;;;5034605;28;20461;-66
2022/03/09 07:28:42;;;;;;;0.43;0.43;;;1.60;99.90;;;;;;5033607;28;20468;-67
2022/03/09 07:31:29;;;;;;;0.40;0.40;;;1.70;99.90;;;;;;5035287;28;20478;-66
2022/03/09 07:34:16;;;;;;;0.40;0.40;;;1.90;99.90;;;;;;5034016;28;20426;-65
2022/03/09 07:37:03;;;;;;;0.40;0.40;;;2.00;99.90;;;;;;5020073;28;20870;-66
2022/03/09 07:39:50;;;;;;;0.40;0.40;;;2.10;99.90;;;;;;5035445;28;20433;-66
2022/03/09 07:42:38;;;;;;;0.40;0.40;;;2.20;99.90;;;;;;5034384;28;20458;-65
2022/03/09 07:45:25;;;;;;;0.40;0.40;;;2.40;99.90;;;;;;5034668;28;20434;-66
2022/03/09 07:48:12;;;;;;;0.40;0.40;;;2.50;99.90;;;;;;5035014;28;20491;-66
2022/03/09 07:50:59;;;;;;;0.40;0.40;;;2.70;99.90;;;;;;5035752;28;20821;-66
2022/03/09 07:53:46;;;;;;;0.40;0.40;;;2.70;99.90;;;;;;5034166;28;20437;-66
2022/03/09 07:56:34;;;;;;;0.40;0.40;;;2.90;99.90;;;;;;5033361;28;20471;-65
2022/03/09 07:59:23;;;;;;;0.40;0.40;;;3.00;99.90;;;;;;5020290;28;20425;-65
2022/03/09 08:02:10;;;;;;;0.40;0.40;;;3.10;99.90;;;;;;5028020;28;20475;-66
2022/03/09 08:04:57;;;;;;;0.40;0.40;;;3.20;99.90;;;;;;5033773;28;20453;-65
2022/03/09 08:07:45;;;;;;;0.40;0.40;;;3.40;99.90;;;;;;5034049;28;20425;-65
2022/03/09 08:10:32;;;;;;;0.40;0.40;;;3.50;99.90;;;;;;5032516;28;20424;-65
2022/03/09 08:13:19;;;;;;;0.40;0.40;;;3.60;99.90;;;;;;5026133;28;20508;-66
2022/03/09 08:16:08;;;;;;;0.40;0.40;;;3.80;99.90;;;;;;5034525;28;20421;-66
2022/03/09 08:18:55;;;;;;;0.40;0.40;;;3.80;99.90;;;;;;5033717;28;20474;-65
2022/03/09 08:21:42;;;;;;;0.40;0.40;;;4.00;99.90;;;;;;5043368;28;20464;-65
2022/03/09 08:24:29;;;;;;;0.40;0.40;;;4.10;99.90;;;;;;5032983;28;20461;-65
2022/03/09 08:27:16;;;;;;;0.40;0.40;;;4.30;99.90;;;;;;5020013;28;20433;-65
2022/03/09 08:30:04;;;;;;;0.50;0.40;;;4.40;99.90;;;;;;5034509;28;20491;-65
2022/03/09 08:32:52;;;;;;;0.40;0.40;;;4.60;99.90;;;;;;5036817;28;20463;-65
2022/03/09 08:35:39;;;;;;;0.43;0.43;;;4.70;99.90;;;;;;5029578;28;20441;-66
2022/03/09 08:38:26;;;;;;;0.40;0.40;;;4.90;99.90;;;;;;5030864;28;20468;-67
2022/03/09 08:41:13;;;;;;;0.40;0.40;;;5.00;99.90;;;;;;5032771;28;20554;-65
2022/03/09 08:44:00;;;;;;;0.40;0.40;;;5.10;99.90;;;;;;5032675;28;20455;-66
2022/03/09 08:46:47;;;;;;;0.40;0.40;;;5.30;99.90;;;;;;5033180;28;20895;-65
2022/03/09 08:49:39;;;;;;;0.40;0.40;;;5.40;99.90;;;;;;5042091;28;20435;-65
2022/03/09 08:52:26;;;;;;;0.40;0.40;;;5.50;99.90;;;;;;5040597;28;20437;-65
2022/03/09 08:55:13;;;;;;;0.40;0.40;;;5.80;99.90;;;;;;5051713;28;20417;-66
2022/03/09 08:58:00;;;;;;;0.50;0.50;;;5.70;99.90;;;;;;5043051;28;20476;-65
2022/03/09 09:00:47;;;;;;;0.40;0.40;;;5.90;99.90;;;;;;5033529;28;20434;-65
2022/03/09 09:03:34;;;;;;;0.40;0.40;;;5.90;99.90;;;;;;5032948;28;20440;-65
2022/03/09 09:06:23;;;;;;;0.40;0.40;;;6.10;99.90;;;;;;5025416;28;20434;-65
2022/03/09 09:09:10;;;;;;;0.40;0.40;;;6.20;99.90;;;;;;5036814;28;20424;-65
2022/03/09 09:11:59;;;;;;;0.40;0.40;;;6.20;99.90;;;;;;5035611;28;20461;-65
2022/03/09 09:14:46;;;;;;;0.40;0.40;;;6.50;99.90;;;;;;5035416;28;20523;-67
2022/03/09 09:17:34;;;;;;;0.40;0.40;;;6.50;99.90;;;;;;5037052;28;20461;-65
2022/03/09 09:20:25;;;;;;;0.40;0.40;;;6.60;99.90;;;;;;5036083;28;20428;-65
2022/03/09 09:23:13;;;;;;;0.40;0.40;;;6.70;99.90;;;;;;5034388;28;20836;-65
2022/03/09 09:26:00;;;;;;;0.40;0.40;;;6.80;99.90;;;;;;5034678;28;20432;-65
2022/03/09 09:28:47;;;;;;;0.40;0.40;;;6.80;99.90;;;;;;5035090;28;20421;-65
2022/03/09 09:31:35;;;;;;;0.47;0.47;;;6.90;99.90;;;;;;5035074;28;20453;-65
2022/03/09 09:34:22;;;;;;;0.40;0.40;;;7.00;99.90;;;;;;5036446;28;20432;-65
2022/03/09 09:37:09;;;;;;;0.40;0.40;;;7.00;99.90;;;;;;5023781;28;20492;-65
2022/03/09 09:39:57;;;;;;;0.40;0.40;;;7.00;99.90;;;;;;5037779;28;20440;-66
2022/03/09 09:42:45;;;;;;;0.40;0.40;;;7.10;99.90;;;;;;5042274;28;20991;-66
2022/03/09 09:45:32;;;;;;;0.40;0.40;;;7.20;99.90;;;;;;5049313;28;20453;-66
2022/03/09 09:48:20;;;;;;;0.40;0.40;;;7.20;99.90;;;;;;5043492;28;20444;-65
2022/03/09 09:51:08;;;;;;;0.40;0.40;;;7.30;99.90;;;;;;5036946;28;20453;-66
2022/03/09 09:53:55;;;;;;;0.40;0.40;;;7.40;99.90;;;;;;5036860;28;20432;-66
2022/03/09 09:56:44;;;;;;;0.40;0.40;;;7.40;99.90;;;;;;5039641;28;20480;-65
2022/03/09 09:59:31;;;;;;;0.40;0.40;;;7.50;99.90;;;;;;5033299;28;20565;-66
2022/03/09 10:02:18;;;;;;;0.40;0.40;;;7.60;99.90;;;;;;5040922;28;20486;-67
2022/03/09 10:05:06;;;;;;;0.40;0.40;;;7.70;99.90;;;;;;5044062;28;20458;-66
2022/03/09 10:08:13;;;;;;;0.40;0.40;;;7.70;99.90;;;;;;5042068;28;20416;-66
2022/03/09 10:11:02;;;;;;;0.40;0.40;;;7.80;99.90;;;;;;5041363;28;20935;-66
2022/03/09 10:13:51;;;;;;;0.40;0.40;;;7.80;99.90;;;;;;5034764;28;20438;-66
2022/03/09 10:16:39;;;;;;;0.40;0.40;;;7.90;99.90;;;;;;5034671;28;21090;-66
2022/03/09 10:19:30;;;;;;;0.40;0.40;;;8.00;99.90;;;;;;5049702;28;20460;-65
2022/03/09 10:22:31;;;;;;;0.40;0.40;;;8.00;99.90;;;;;;5038791;28;20454;-66
2022/03/09 10:25:19;;;;;;;0.40;0.40;;;8.00;99.90;;;;;;5024314;28;21017;-66
2022/03/09 10:28:09;;;;;;;0.40;0.40;;;8.00;99.90;;;;;;5029348;28;20426;-66
2022/03/09 10:30:57;;;;;;;0.40;0.40;;;8.10;99.90;;;;;;5022414;28;20438;-66
2022/03/09 10:33:44;;;;;;;0.40;0.40;;;8.10;99.90;;;;;;5034077;28;20428;-66
2022/03/09 10:36:31;;;;;;;0.40;0.40;;;8.20;99.90;;;;;;5032684;28;20429;-65
2022/03/09 10:39:18;;;;;;;0.40;0.40;;;8.20;99.90;;;;;;5020110;28;20472;-66
2022/03/09 10:42:22;;;;;;;0.40;0.40;;;8.40;99.90;;;;;;5033908;28;20476;-67
2022/03/09 10:45:10;;;;;;;0.40;0.40;;;8.30;99.90;;;;;;5033292;28;20437;-65
2022/03/09 10:47:58;;;;;;;0.40;0.40;;;8.40;99.90;;;;;;5025520;28;20413;-66
2022/03/09 10:50:51;;;;;;;0.40;0.40;;;8.40;99.90;;;;;;5031429;28;20442;-65
2022/03/09 10:53:44;;;;;;;0.40;0.40;;;8.40;99.90;;;;;;5038101;28;20425;-66
2022/03/09 10:56:32;;;;;;;0.40;0.40;;;8.40;99.90;;;;;;5044247;28;20800;-66
2022/03/09 10:59:24;;;;;;;0.40;0.40;;;8.40;99.90;;;;;;5029341;28;20477;-65
2022/03/09 11:02:13;;;;;;;0.40;0.40;;;8.40;99.90;;;;;;5036435;28;21072;-66
2022/03/09 11:05:09;;;;;;;0.40;0.40;;;8.50;99.90;;;;;;5040321;28;20768;-66
2022/03/09 11:07:58;;;;;;;0.90;0.90;;;8.50;99.90;;;;;;5044090;28;20828;-65
2022/03/09 11:10:46;;;;;;;0.40;0.40;;;8.50;99.90;;;;;;5031093;28;20441;-65
2022/03/09 11:13:35;;;;;;;1.00;1.00;;;8.50;99.90;;;;;;5036343;28;20930;-65
2022/03/09 11:16:22;;;;;;;0.40;0.40;;;8.60;99.90;;;;;;5036092;28;20429;-65
2022/03/09 11:19:10;;;;;;;0.40;0.40;;;8.60;99.90;;;;;;5039002;28;20461;-65
2022/03/09 11:21:58;;;;;;;0.40;0.40;;;8.70;99.90;;;;;;5034331;28;20457;-65
2022/03/09 11:24:46;;;;;;;0.40;0.40;;;8.80;99.90;;;;;;5034481;28;20456;-65
2022/03/09 11:27:34;;;;;;;0.40;0.40;;;9.00;99.90;;;;;;5033375;28;20429;-65
2022/03/09 11:30:22;;;;;;;0.40;0.40;;;8.90;99.90;;;;;;5033096;28;20461;-66
2022/03/09 11:33:39;;;;;;;1.63;1.53;;;9.00;99.90;;;;;;5033658;28;20884;-66
2022/03/09 11:36:36;;;;;;;0.40;0.40;;;9.00;99.90;;;;;;5034422;28;20953;-66
2022/03/09 11:39:34;;;;;;;0.40;0.40;;;9.10;99.90;;;;;;5030495;28;20469;-66
2022/03/09 11:42:41;;;;;;;0.40;0.40;;;9.20;99.90;;;;;;5030282;28;20551;-65
2022/03/09 11:45:33;;;;;;;0.40;0.40;;;9.20;99.90;;;;;;5034396;28;20422;-66
2022/03/09 11:48:20;;;;;;;0.40;0.40;;;9.20;99.90;;;;;;5037775;28;20437;-65
2022/03/09 11:51:12;;;;;;;0.40;0.40;;;9.30;99.90;;;;;;5042867;28;20456;-65
2022/03/09 11:54:01;;;;;;;0.40;0.40;;;9.30;99.90;;;;;;5033012;28;20946;-66
2022/03/09 11:56:52;;;;;;;0.40;0.40;;;9.30;99.90;;;;;;5036386;28;20445;-65
2022/03/09 11:59:40;;;;;;;0.40;0.40;;;9.40;99.90;;;;;;5034586;28;20478;-66
2022/03/09 12:02:41;;;;;;;0.40;0.40;;;9.50;99.90;;;;;;5027013;28;20487;-66
2022/03/09 12:05:41;;;;;;;0.40;0.40;;;9.50;99.90;;;;;;5030593;28;20421;-65
2022/03/09 12:08:45;;;;;;;0.40;0.40;;;9.50;99.90;;;;;;5032687;28;20437;-65
2022/03/09 12:12:06;;;;;;;0.40;0.40;;;9.50;99.90;;;;;;5021982;28;20520;-66
2022/03/09 12:15:01;;;;;;;0.40;0.40;;;9.50;99.90;;;;;;5044117;28;20424;-66
2022/03/09 12:17:48;;;;;;;0.40;0.40;;;9.50;99.90;;;;;;5031726;28;20444;-66
2022/03/09 12:20:45;;;;;;;0.40;0.40;;;8.90;99.90;;;;;;5033294;28;20429;-66
2022/03/09 12:23:34;;;;;;;0.40;0.40;;;9.50;99.90;;;;;;5021023;28;20439;-66
2022/03/09 12:26:39;;;;;;;0.40;0.40;;;9.60;99.90;;;;;;5033150;28;20938;-66
2022/03/09 12:29:40;;;;;;;0.87;0.87;;;9.60;99.90;;;;;;5020319;28;20421;-65
2022/03/09 12:32:40;;;;;;;0.40;0.40;;;9.60;99.90;;;;;;5037616;28;20452;-65
2022/03/09 12:35:27;;;;;;;0.40;0.40;;;9.70;99.90;;;;;;5033227;28;20458;-65
2022/03/09 12:38:14;;;;;;;0.40;0.40;;;9.70;99.90;;;;;;5032422;28;20465;-66
2022/03/09 12:41:03;;;;;;;0.40;0.40;;;9.80;99.90;;;;;;5038231;28;20441;-66
2022/03/09 12:43:51;;;;;;;0.40;0.40;;;9.80;99.90;;;;;;5037052;28;20989;-66
2022/03/09 12:46:40;;;;;;;0.40;0.40;;;9.90;99.90;;;;;;5037359;28;20452;-66
2022/03/09 12:49:38;;;;;;;0.40;0.40;;;9.80;99.30;;;;;;5037587;28;20579;-65
2022/03/09 12:52:25;;;;;;;0.40;0.40;;;;;;;;;;5043010;28;20445;-66
2022/03/09 12:55:18;;;;;;;0.40;0.40;;;9.90;99.00;;;;;;5043850;28;21897;-66
2022/03/09 12:58:06;;;;;;;0.40;0.40;;;10.00;98.80;;;;;;5037610;28;20425;-66
2022/03/09 13:01:01;;;;;;;0.40;0.40;;;10.00;99.10;;;;;;5037259;28;20971;-66
2022/03/09 13:03:48;;;;;;;0.40;0.40;;;10.00;98.40;;;;;;5035969;28;20484;-66
2022/03/09 13:06:36;;;;;;;0.40;0.40;;;10.00;97.60;;;;;;5036208;28;20421;-66
2022/03/09 13:09:25;;;;;;;0.40;0.40;;;10.20;97.40;;;;;;5025170;28;20525;-66
2022/03/09 13:12:13;;;;;;;0.40;0.40;;;10.40;97.20;;;;;;5036755;28;21172;-66
2022/03/09 13:15:04;;;;;;;0.40;0.40;;;10.60;96.80;;;;;;5037376;28;20442;-67
2022/03/09 13:17:52;;;;;;;0.40;0.40;;;10.80;96.60;;;;;;5045283;28;20432;-66
2022/03/09 13:20:42;;;;;;;0.40;0.40;;;11.00;95.70;;;;;;5041384;28;20433;-66
2022/03/09 13:23:32;;;;;;;0.40;0.40;;;11.20;95.10;;;;;;5044904;28;20470;-66
2022/03/09 13:26:21;;;;;;;0.40;0.40;;;11.40;94.10;;;;;;5044742;28;20429;-66
2022/03/09 13:29:14;;;;;;;0.40;0.40;;;11.70;92.10;;;;;;5043283;28;20430;-66
2022/03/09 13:32:03;;;;;;;0.40;0.40;;;12.00;92.30;;;;;;5026544;28;20855;-66
2022/03/09 13:34:56;;;;;;;0.40;0.40;;;12.40;90.80;;;;;;5019930;28;20425;-66
2022/03/09 13:37:43;;;;;;;0.40;0.40;;;13.20;90.40;;;;;;5034923;28;20432;-66
2022/03/09 13:40:30;;;;;;;0.40;0.40;;;14.60;90.60;;;;;;5036801;28;20472;-66
2022/03/09 13:43:18;;;;;;;1.83;1.73;;;15.80;87.70;;;;;;5030261;28;20947;-66
2022/03/09 13:46:14;;;;;;;0.40;0.40;;;16.70;81.60;;;;;;5046079;28;20205;-66
2022/03/09 13:49:12;;;;;;;0.40;0.40;;;17.20;78.80;;;;;;5056574;28;20228;-65
2022/03/09 13:51:59;;;;;;;0.40;0.40;;;18.10;75.60;;;;;;5055030;28;20217;-65
2022/03/09 13:54:46;;;;;;;0.40;0.40;;;19.60;70.60;;;;;;5055016;28;20193;-65
2022/03/09 13:57:35;;;;;;;0.40;0.40;;;21.30;64.60;;;;;;5055895;28;20209;-65
2022/03/09 14:00:30;;;;;;;0.40;0.40;;;21.70;60.20;;;;;;5037138;28;20229;-66
2022/03/09 14:03:19;;;;;;;0.40;0.40;;;22.30;56.60;;;;;;5035806;28;20199;-66
2022/03/09 14:06:15;;;;;;;0.40;0.40;;;22.60;55.00;;;;;;5036157;28;20201;-65
2022/03/09 14:09:11;;;;;;;0.40;0.40;;;22.10;53.30;;;;;;5036279;28;20269;-65
2022/03/09 14:11:58;;;;;;;0.40;0.40;;;22.30;53.30;;;;;;5042415;28;20226;-66
2022/03/09 14:14:45;;;;;;;0.40;0.40;;;22.20;52.50;;;;;;5044636;28;20213;-65
2022/03/09 14:17:38;;;;;;;0.40;0.40;;;21.60;50.80;;;;;;5043251;28;20229;-65
2022/03/09 14:20:26;;;;;;;0.40;0.40;;;21.10;51.90;;;;;;5036116;28;20226;-66
2022/03/09 14:23:16;;;;;;;0.40;0.30;;;21.30;52.40;;;;;;5035221;28;20202;-66
2022/03/09 14:26:05;;;;;;;0.40;0.30;;;21.00;50.10;;;;;;5035856;28;20293;-65
2022/03/09 14:28:56;;;;;;;1.15;1.15;;;20.50;51.20;;;;;;5037098;28;20199;-65
2022/03/09 14:31:46;;;;;;;0.40;0.40;;;21.10;50.90;;;;;;5030793;28;20707;-65
2022/03/09 14:34:33;;;;;;;0.50;0.50;;;21.90;50.60;;;;;;5038601;28;20795;-65
2022/03/09 14:37:20;;;;;;;0.40;0.40;;;22.50;49.00;;;;;;5035868;28;20733;-65
2022/03/09 14:40:13;;;;;;;0.40;0.40;;;23.20;49.20;;;;;;5016237;28;20218;-66
2022/03/09 14:42:59;;;;;;;5.57;5.07;;;24.20;47.80;;;;;;5015015;28;20227;-67
2022/03/09 14:45:46;;;;;;;0.40;0.40;;;25.30;46.80;;;;;;5046321;28;20210;-66
2022/03/09 14:48:34;;;;;;;0.40;0.40;;;25.30;45.50;;;;;;5055985;28;20208;-67